Time;durP1;ratioP1;P1;durP2;ratioP2;P2;SDS_P1;SDS_P2;PMS_P1;PMS_P2;Temp;Humidity;BMP_temperature;BMP_pressure;BME280_temperature;BME280_humidity;BME280_pressure;Samples;Min_cycle;Max_cycle;Signal;HPM_P1;HPM_P2
2022/10/18 00:00:12;;;;;;;3.70;0.98;;;20.80;62.40;;;;;;4119925;28;20097;-63
2022/10/18 00:02:35;;;;;;;1.77;0.93;;;20.80;62.40;;;;;;4120263;28;20031;-66
2022/10/18 00:04:57;;;;;;;1.30;0.70;;;20.70;62.40;;;;;;4121529;28;20137;-65
2022/10/18 00:07:20;;;;;;;3.13;0.90;;;20.70;62.40;;;;;;4119745;28;20054;-64
2022/10/18 00:09:42;;;;;;;1.50;0.77;;;20.70;62.40;;;;;;4118237;28;20093;-55
2022/10/18 00:12:05;;;;;;;1.70;1.13;;;20.70;62.40;;;;;;4124886;28;20133;-55
2022/10/18 00:14:27;;;;;;;3.08;1.17;;;20.70;62.50;;;;;;4125271;28;20037;-56
2022/10/18 00:16:50;;;;;;;1.58;0.73;;;20.60;62.30;;;;;;4121957;28;20070;-53
2022/10/18 00:19:13;;;;;;;6.40;0.90;;;20.70;62.50;;;;;;4123613;28;20057;-52
2022/10/18 00:21:35;;;;;;;2.08;0.90;;;20.70;62.70;;;;;;4120677;28;20104;-55
2022/10/18 00:23:58;;;;;;;1.15;0.75;;;20.70;62.80;;;;;;4123856;28;20477;-52
2022/10/18 00:26:24;;;;;;;1.38;0.45;;;20.70;63.00;;;;;;4123918;28;20072;-49
2022/10/18 00:28:49;;;;;;;1.35;0.50;;;20.70;63.10;;;;;;4119213;28;20048;-50
2022/10/18 00:31:14;;;;;;;1.15;0.65;;;20.80;63.30;;;;;;4122847;28;20052;-46
2022/10/18 00:33:36;;;;;;;1.83;0.40;;;20.80;63.40;;;;;;4124764;28;20042;-51
2022/10/18 00:36:00;;;;;;;6.40;0.73;;;20.80;63.50;;;;;;4124203;28;20042;-51
2022/10/18 00:38:23;;;;;;;1.70;0.70;;;20.80;63.60;;;;;;4121906;28;20558;-48
2022/10/18 00:40:45;;;;;;;3.13;0.50;;;20.90;63.80;;;;;;4125606;28;20053;-50
2022/10/18 00:43:14;;;;;;;2.00;0.75;;;20.80;63.70;;;;;;4133511;28;20414;-53
2022/10/18 00:45:37;;;;;;;1.02;0.50;;;20.90;63.80;;;;;;4123706;28;20121;-55
2022/10/18 00:48:03;;;;;;;2.17;0.70;;;20.90;63.80;;;;;;4118058;28;20081;-52
2022/10/18 00:50:30;;;;;;;1.45;0.45;;;20.90;63.80;;;;;;4112014;28;20082;-48
2022/10/18 00:52:59;;;;;;;0.57;0.50;;;20.90;63.70;;;;;;4118130;28;20034;-51
2022/10/18 00:55:22;;;;;;;1.45;0.60;;;21.00;63.70;;;;;;4118396;28;20497;-51
2022/10/18 00:57:47;;;;;;;1.75;0.40;;;21.00;63.70;;;;;;4113617;28;20481;-52
2022/10/18 01:00:10;;;;;;;0.73;0.30;;;20.90;63.70;;;;;;4118597;28;20034;-50
2022/10/18 01:02:33;;;;;;;0.77;0.35;;;20.90;63.70;;;;;;4125886;28;20045;-50
2022/10/18 01:04:55;;;;;;;4.28;0.75;;;21.00;63.70;;;;;;4123387;28;20544;-50
2022/10/18 01:07:55;;;;;;;0.55;0.35;;;21.00;63.70;;;;;;4123974;28;20064;-48
2022/10/18 01:10:46;;;;;;;0.40;0.40;;;21.00;63.70;;;;;;4121816;28;20045;-45
2022/10/18 01:13:31;;;;;;;1.52;0.50;;;21.00;63.70;;;;;;4121649;28;20041;-48
2022/10/18 01:15:52;;;;;;;;;;;21.00;63.80;;;;;;4127562;28;20159;-53
2022/10/18 01:18:28;;;;;;;0.52;0.40;;;21.00;63.70;;;;;;4116145;28;19939;-54
2022/10/18 01:21:05;;;;;;;0.38;0.38;;;21.10;63.80;;;;;;4123411;28;20077;-54
2022/10/18 01:23:48;;;;;;;0.88;0.45;;;21.10;63.80;;;;;;4119920;28;20039;-50
2022/10/18 01:26:44;;;;;;;0.55;0.55;;;21.10;63.80;;;;;;4125689;28;20061;-47
2022/10/18 01:29:31;;;;;;;0.45;0.45;;;21.10;63.70;;;;;;4123173;28;20183;-46
2022/10/18 01:32:08;;;;;;;1.40;0.43;;;21.10;63.70;;;;;;4116912;28;20077;-46
2022/10/18 01:34:35;;;;;;;1.33;0.40;;;21.10;63.80;;;;;;4114621;28;20045;-50
2022/10/18 01:37:00;;;;;;;4.50;0.57;;;21.10;64.10;;;;;;4112443;28;20509;-49
2022/10/18 01:39:34;;;;;;;2.50;0.35;;;21.20;64.10;;;;;;4119747;28;20499;-55
2022/10/18 01:41:59;;;;;;;0.40;0.40;;;21.20;64.10;;;;;;4117783;28;20042;-59
2022/10/18 01:44:25;;;;;;;2.97;0.70;;;21.20;63.80;;;;;;4113482;28;20096;-56
2022/10/18 01:46:49;;;;;;;2.60;0.88;;;21.20;63.40;;;;;;4114144;28;20465;-47
2022/10/18 01:49:12;;;;;;;1.17;0.50;;;21.20;63.20;;;;;;4117479;28;20038;-53
2022/10/18 01:51:34;;;;;;;0.30;0.30;;;21.30;63.20;;;;;;4119980;28;20034;-55
2022/10/18 01:53:57;;;;;;;0.50;0.47;;;21.30;63.10;;;;;;4120259;28;20458;-53
2022/10/18 01:56:27;;;;;;;0.77;0.45;;;21.30;63.00;;;;;;4124619;28;20476;-53
2022/10/18 01:59:10;;;;;;;4.53;0.50;;;21.30;62.90;;;;;;4127071;28;20611;-55
2022/10/18 02:01:59;;;;;;;0.80;0.40;;;21.30;62.80;;;;;;4111499;28;20548;-55
2022/10/18 02:04:26;;;;;;;1.40;0.50;;;21.30;62.80;;;;;;4116794;28;20141;-53
2022/10/18 02:06:56;;;;;;;2.03;0.95;;;21.30;62.70;;;;;;4120392;28;20042;-56
2022/10/18 02:09:29;;;;;;;1.00;0.50;;;21.30;62.50;;;;;;4119377;28;20078;-53
2022/10/18 02:11:53;;;;;;;0.77;0.43;;;21.30;62.40;;;;;;4118627;28;20706;-54
2022/10/18 02:14:20;;;;;;;0.50;0.50;;;21.20;62.40;;;;;;4105647;28;20102;-53
2022/10/18 02:17:03;;;;;;;2.78;0.60;;;21.20;62.50;;;;;;4119581;28;20038;-52
2022/10/18 02:19:43;;;;;;;1.70;0.60;;;21.20;62.40;;;;;;4121682;28;20034;-52
2022/10/18 02:22:08;;;;;;;1.30;0.63;;;21.20;62.40;;;;;;4124191;28;20062;-52
2022/10/18 02:24:36;;;;;;;1.95;0.75;;;21.20;62.40;;;;;;4118600;28;20077;-54
2022/10/18 02:26:58;;;;;;;0.73;0.50;;;21.20;62.40;;;;;;4121018;28;20405;-52
2022/10/18 02:29:21;;;;;;;2.10;0.57;;;21.20;62.40;;;;;;4117304;28;20069;-55
2022/10/18 02:31:48;;;;;;;1.60;0.82;;;21.20;62.40;;;;;;4123480;28;20042;-55
2022/10/18 02:34:17;;;;;;;2.13;0.80;;;21.20;62.50;;;;;;4123118;28;20033;-54
2022/10/18 02:36:47;;;;;;;1.55;0.63;;;21.20;62.40;;;;;;4117920;28;20038;-55
2022/10/18 02:39:26;;;;;;;1.05;0.52;;;21.10;62.40;;;;;;4101325;28;20388;-50
2022/10/18 02:41:49;;;;;;;1.85;0.90;;;21.10;62.40;;;;;;4116775;28;20144;-53
2022/10/18 02:44:12;;;;;;;1.05;0.70;;;21.10;62.40;;;;;;4120850;28;20064;-54
2022/10/18 02:46:34;;;;;;;1.05;0.85;;;21.10;62.40;;;;;;4120956;28;20037;-56
2022/10/18 02:48:57;;;;;;;1.98;0.70;;;21.10;62.40;;;;;;4118408;28;20081;-55
2022/10/18 02:51:19;;;;;;;2.40;1.05;;;21.10;63.10;;;;;;4119266;28;20222;-56
2022/10/18 02:53:42;;;;;;;1.77;0.98;;;21.20;64.10;;;;;;4118977;28;20383;-48
2022/10/18 02:56:05;;;;;;;4.00;0.90;;;21.20;64.30;;;;;;4118969;28;20039;-49
2022/10/18 02:58:27;;;;;;;2.55;0.80;;;21.30;64.20;;;;;;4110753;28;20034;-56
2022/10/18 03:00:50;;;;;;;5.43;1.45;;;21.30;64.20;;;;;;4112843;28;20034;-52
2022/10/18 03:03:13;;;;;;;2.85;0.88;;;21.40;64.60;;;;;;4113741;28;20053;-54
2022/10/18 03:05:35;;;;;;;27.15;1.58;;;21.40;64.90;;;;;;4120302;28;20046;-51
2022/10/18 03:07:58;;;;;;;7.95;1.08;;;21.50;65.10;;;;;;4125453;28;20054;-55
2022/10/18 03:10:20;;;;;;;19.58;1.15;;;21.50;65.30;;;;;;4110871;28;20059;-53
2022/10/18 03:12:43;;;;;;;3.75;0.68;;;21.50;65.20;;;;;;4109700;28;20046;-51
2022/10/18 03:15:06;;;;;;;1.92;0.60;;;21.50;65.30;;;;;;4123719;28;20030;-54
2022/10/18 03:17:28;;;;;;;1.50;0.45;;;21.60;65.30;;;;;;4123435;28;20469;-53
2022/10/18 03:19:51;;;;;;;0.82;0.40;;;21.60;65.20;;;;;;4121384;28;20081;-54
2022/10/18 03:22:13;;;;;;;0.73;0.38;;;21.60;65.20;;;;;;4121261;28;20493;-54
2022/10/18 03:24:36;;;;;;;0.88;0.63;;;21.60;65.10;;;;;;4120382;28;20150;-57
2022/10/18 03:26:58;;;;;;;1.00;0.40;;;21.70;65.00;;;;;;4124643;28;20048;-56
2022/10/18 03:29:21;;;;;;;4.47;0.70;;;21.60;64.70;;;;;;4126849;28;20391;-57
2022/10/18 03:31:43;;;;;;;1.52;0.55;;;21.70;64.80;;;;;;4128924;28;20044;-57
2022/10/18 03:34:06;;;;;;;1.05;0.28;;;21.70;64.80;;;;;;4129941;28;20034;-53
2022/10/18 03:36:29;;;;;;;0.52;0.30;;;21.70;64.50;;;;;;4126975;28;20153;-49
2022/10/18 03:38:51;;;;;;;2.88;0.40;;;21.70;64.90;;;;;;4128585;28;20469;-49
2022/10/18 03:41:14;;;;;;;0.30;0.30;;;21.70;64.80;;;;;;4120876;28;20080;-50
2022/10/18 03:43:36;;;;;;;1.00;0.35;;;21.80;64.90;;;;;;4120405;28;20168;-53
2022/10/18 03:46:00;;;;;;;1.05;0.30;;;21.80;64.80;;;;;;4120282;28;20121;-54
2022/10/18 03:48:22;;;;;;;0.40;0.40;;;21.80;64.70;;;;;;4122282;28;20064;-47
2022/10/18 03:50:45;;;;;;;0.50;0.40;;;21.90;64.90;;;;;;4120673;28;20038;-54
2022/10/18 03:53:08;;;;;;;2.40;0.30;;;21.90;64.80;;;;;;4125257;28;20505;-52
2022/10/18 03:55:30;;;;;;;0.28;0.28;;;21.90;64.80;;;;;;4106291;28;20213;-53
2022/10/18 03:57:53;;;;;;;0.43;0.43;;;21.90;64.70;;;;;;4125393;28;20050;-52
2022/10/18 04:00:16;;;;;;;0.50;0.40;;;21.90;64.70;;;;;;4125772;28;20034;-52
2022/10/18 04:02:39;;;;;;;0.30;0.30;;;21.90;64.50;;;;;;4121533;28;20105;-54
2022/10/18 04:05:01;;;;;;;0.40;0.35;;;22.00;64.60;;;;;;4123971;28;20077;-54
2022/10/18 04:07:24;;;;;;;1.45;0.32;;;22.00;64.60;;;;;;4123610;28;20065;-52
2022/10/18 04:09:46;;;;;;;0.20;0.20;;;22.00;64.60;;;;;;4120540;28;20730;-47
2022/10/18 04:12:09;;;;;;;0.52;0.30;;;22.00;64.50;;;;;;4122688;28;20041;-55
2022/10/18 04:14:32;;;;;;;0.30;0.30;;;22.00;64.50;;;;;;4125098;28;20058;-51
2022/10/18 04:16:54;;;;;;;1.27;0.50;;;22.10;64.50;;;;;;4098478;28;20039;-46
2022/10/18 04:19:17;;;;;;;0.52;0.30;;;22.10;64.50;;;;;;4120292;28;20049;-52
2022/10/18 04:21:39;;;;;;;0.40;0.30;;;22.10;64.50;;;;;;4116489;28;20074;-50
2022/10/18 04:24:02;;;;;;;0.88;0.40;;;22.10;64.60;;;;;;4122099;28;20336;-52
2022/10/18 04:26:25;;;;;;;1.75;0.38;;;22.10;64.60;;;;;;4122460;28;20058;-49
2022/10/18 04:28:47;;;;;;;1.65;0.40;;;22.10;64.70;;;;;;4121599;28;20720;-53
2022/10/18 04:31:11;;;;;;;1.90;0.70;;;22.10;64.70;;;;;;4122826;28;20041;-49
2022/10/18 04:33:33;;;;;;;1.75;0.85;;;22.10;64.70;;;;;;4122650;28;20044;-55
2022/10/18 04:35:56;;;;;;;1.00;0.40;;;22.10;64.60;;;;;;4127973;28;20057;-51
2022/10/18 04:38:19;;;;;;;1.38;0.20;;;22.10;64.30;;;;;;4125705;28;20049;-48
2022/10/18 04:40:41;;;;;;;1.52;0.52;;;22.20;64.30;;;;;;4115752;28;20061;-50
2022/10/18 04:43:04;;;;;;;1.23;0.70;;;22.20;64.30;;;;;;4120059;28;20447;-51
2022/10/18 04:45:27;;;;;;;1.02;0.38;;;22.20;64.30;;;;;;4115509;28;20039;-50
2022/10/18 04:47:49;;;;;;;5.97;0.80;;;22.20;64.30;;;;;;4114512;28;20066;-51
2022/10/18 04:50:12;;;;;;;0.30;0.30;;;22.20;64.20;;;;;;4115377;28;20039;-50
2022/10/18 04:52:34;;;;;;;2.25;0.50;;;22.20;64.20;;;;;;4120616;28;20042;-52
2022/10/18 04:54:57;;;;;;;1.58;0.40;;;22.20;64.20;;;;;;4120914;28;20029;-53
2022/10/18 04:57:19;;;;;;;1.38;0.20;;;22.20;64.20;;;;;;4122079;28;20038;-55
2022/10/18 04:59:42;;;;;;;0.93;0.30;;;22.20;64.20;;;;;;4122664;28;20125;-55
2022/10/18 05:02:04;;;;;;;2.25;0.47;;;22.20;64.20;;;;;;4131728;28;20334;-55
2022/10/18 05:04:27;;;;;;;0.95;0.32;;;22.20;64.10;;;;;;4121498;28;20427;-51
2022/10/18 05:06:50;;;;;;;1.90;0.43;;;22.20;64.10;;;;;;4111627;28;20045;-56
2022/10/18 05:09:12;;;;;;;0.80;0.30;;;22.20;64.10;;;;;;4108336;28;20034;-54
2022/10/18 05:11:35;;;;;;;0.57;0.52;;;22.20;64.10;;;;;;4096073;28;20042;-55
2022/10/18 05:13:58;;;;;;;0.30;0.30;;;22.30;64.10;;;;;;4097261;28;20055;-51
2022/10/18 05:16:20;;;;;;;0.45;0.30;;;22.30;64.00;;;;;;4099445;28;20041;-55
2022/10/18 05:18:43;;;;;;;0.65;0.32;;;22.30;64.00;;;;;;4105715;28;20042;-54
2022/10/18 05:21:05;;;;;;;0.28;0.28;;;22.30;64.00;;;;;;4109458;28;20054;-51
2022/10/18 05:23:28;;;;;;;0.30;0.30;;;22.30;64.00;;;;;;4101048;28;20070;-50
2022/10/18 05:25:51;;;;;;;2.03;0.38;;;22.30;64.00;;;;;;4107222;28;20038;-49
2022/10/18 05:28:13;;;;;;;1.85;0.30;;;22.30;64.00;;;;;;4104041;28;20051;-51
2022/10/18 05:30:40;;;;;;;2.50;0.73;;;22.30;64.00;;;;;;4104232;28;20453;-46
2022/10/18 05:33:03;;;;;;;2.35;0.50;;;22.30;63.70;;;;;;4089812;28;20097;-56
2022/10/18 05:35:25;;;;;;;0.65;0.40;;;22.30;63.60;;;;;;4094802;28;20035;-50
2022/10/18 05:37:48;;;;;;;4.40;0.43;;;22.30;63.70;;;;;;4106472;28;20042;-53
2022/10/18 05:40:11;;;;;;;2.65;0.57;;;22.30;63.70;;;;;;4105701;28;20481;-55
2022/10/18 05:42:33;;;;;;;2.00;0.45;;;22.30;63.80;;;;;;4102185;28;20174;-53
2022/10/18 05:44:56;;;;;;;2.65;0.63;;;22.30;63.90;;;;;;4097290;28;20072;-52
2022/10/18 05:47:18;;;;;;;2.28;0.40;;;22.30;63.90;;;;;;4093775;28;20050;-49
2022/10/18 05:49:41;;;;;;;1.30;0.60;;;22.30;63.90;;;;;;4099588;28;20447;-54
2022/10/18 05:52:03;;;;;;;1.45;0.50;;;22.30;63.90;;;;;;4099161;28;20125;-51
2022/10/18 05:54:26;;;;;;;0.70;0.50;;;22.30;63.80;;;;;;4101619;28;20031;-52
2022/10/18 05:56:49;;;;;;;3.33;0.45;;;22.30;63.80;;;;;;4102257;28;20125;-51
2022/10/18 05:59:11;;;;;;;0.52;0.40;;;22.30;63.90;;;;;;4089300;28;20410;-54
2022/10/18 06:01:34;;;;;;;1.35;0.47;;;22.30;63.90;;;;;;4092728;28;20043;-62
2022/10/18 06:03:56;;;;;;;1.98;0.70;;;22.30;64.00;;;;;;4099748;28;20093;-65
2022/10/18 06:06:19;;;;;;;3.03;0.80;;;22.30;64.10;;;;;;4120544;28;20042;-67
2022/10/18 06:08:44;;;;;;;8.70;0.80;;;22.30;64.20;;;;;;4099277;28;20063;-67
2022/10/18 06:11:08;;;;;;;6.68;0.93;;;22.30;64.20;;;;;;4123107;28;20076;-66
2022/10/18 06:13:31;;;;;;;9.05;0.98;;;22.30;64.20;;;;;;4119366;28;20074;-66
2022/10/18 06:15:56;;;;;;;2.17;0.40;;;22.30;64.20;;;;;;4118453;28;20038;-66
2022/10/18 06:18:22;;;;;;;3.47;0.60;;;22.30;64.20;;;;;;4118691;28;20113;-65
2022/10/18 06:20:44;;;;;;;5.57;0.55;;;22.30;64.10;;;;;;4119997;28;20135;-66
2022/10/18 06:23:07;;;;;;;3.20;0.60;;;22.30;64.70;;;;;;4121758;28;20188;-68
2022/10/18 06:25:29;;;;;;;1.33;0.60;;;22.30;64.00;;;;;;4118414;28;20499;-65
2022/10/18 06:27:52;;;;;;;1.20;0.52;;;22.30;64.10;;;;;;4120311;28;20453;-65
2022/10/18 06:30:15;;;;;;;0.30;0.30;;;22.30;64.10;;;;;;4119123;28;20521;-63
2022/10/18 06:32:37;;;;;;;4.10;0.75;;;22.30;64.10;;;;;;4121307;28;20778;-67
2022/10/18 06:35:00;;;;;;;0.98;0.47;;;22.30;64.00;;;;;;4116787;28;20066;-63
2022/10/18 06:37:22;;;;;;;2.17;0.52;;;22.30;63.90;;;;;;4122564;28;20082;-59
2022/10/18 06:39:45;;;;;;;1.08;0.50;;;22.30;63.80;;;;;;4118692;28;20031;-55
2022/10/18 06:42:11;;;;;;;2.75;0.40;;;22.30;63.60;;;;;;4114360;28;20042;-73
2022/10/18 06:44:34;;;;;;;1.75;0.50;;;22.30;63.60;;;;;;4109739;28;20157;-65
2022/10/18 06:46:56;;;;;;;1.45;0.40;;;22.30;63.50;;;;;;4111281;28;20486;-63
2022/10/18 06:49:19;;;;;;;0.38;0.38;;;22.30;64.00;;;;;;4117791;28;20632;-67
2022/10/18 06:51:43;;;;;;;0.57;0.40;;;22.30;63.30;;;;;;4113215;28;20354;-62
2022/10/18 06:54:06;;;;;;;1.70;0.32;;;22.30;63.30;;;;;;4114766;28;20478;-62
2022/10/18 06:56:29;;;;;;;0.25;0.25;;;22.30;63.20;;;;;;4114698;28;20139;-63
2022/10/18 06:58:51;;;;;;;0.75;0.45;;;22.30;63.20;;;;;;4115820;28;21087;-69
2022/10/18 07:01:18;;;;;;;0.30;0.30;;;22.30;63.10;;;;;;4114721;28;20084;-73
2022/10/18 07:03:41;;;;;;;6.22;0.50;;;22.30;63.10;;;;;;4118870;28;20109;-67
2022/10/18 07:06:05;;;;;;;0.40;0.40;;;22.30;63.20;;;;;;4117583;28;20433;-65
2022/10/18 07:08:29;;;;;;;0.95;0.65;;;22.30;63.30;;;;;;4124582;28;20493;-62
2022/10/18 07:10:52;;;;;;;1.90;1.05;;;22.20;63.20;;;;;;4120949;28;20464;-63
2022/10/18 07:13:15;;;;;;;5.32;0.60;;;22.20;64.30;;;;;;4122922;28;20422;-64
2022/10/18 07:15:37;;;;;;;1.25;0.80;;;22.20;64.70;;;;;;4120074;28;20065;-60
2022/10/18 07:18:00;;;;;;;4.22;0.90;;;22.20;65.10;;;;;;4113875;28;20784;-59
2022/10/18 07:20:23;;;;;;;3.28;0.77;;;22.20;65.40;;;;;;4108901;28;20057;-58
2022/10/18 07:22:45;;;;;;;1.35;0.75;;;22.20;65.40;;;;;;4107290;28;20045;-62
2022/10/18 07:25:09;;;;;;;1.52;0.63;;;22.20;65.50;;;;;;4112979;28;20074;-62
2022/10/18 07:27:35;;;;;;;3.42;0.80;;;22.20;65.30;;;;;;4123988;28;20050;-62
2022/10/18 07:29:57;;;;;;;1.35;0.50;;;22.20;65.20;;;;;;4124352;28;20592;-62
2022/10/18 07:32:20;;;;;;;4.20;0.65;;;22.20;65.40;;;;;;4124504;28;20103;-63
2022/10/18 07:34:42;;;;;;;3.90;0.95;;;22.20;65.30;;;;;;4121468;28;20271;-65
2022/10/18 07:37:05;;;;;;;3.33;1.10;;;22.20;65.40;;;;;;4127692;28;20045;-62
2022/10/18 07:39:27;;;;;;;5.72;0.90;;;22.20;65.50;;;;;;4126560;28;20125;-66
2022/10/18 07:41:50;;;;;;;9.48;1.40;;;22.20;65.50;;;;;;4118932;28;20200;-64
2022/10/18 07:44:13;;;;;;;1.83;0.88;;;22.20;65.30;;;;;;4119707;28;20068;-64
2022/10/18 07:46:35;;;;;;;3.55;1.00;;;22.20;65.10;;;;;;4117250;28;20046;-65
2022/10/18 07:48:58;;;;;;;3.78;1.45;;;22.20;65.00;;;;;;4119365;28;20045;-65
2022/10/18 07:51:21;;;;;;;3.25;1.65;;;22.20;64.90;;;;;;4118814;28;20042;-63
2022/10/18 07:53:44;;;;;;;4.72;1.50;;;22.20;64.90;;;;;;4118495;28;20042;-62
2022/10/18 07:56:16;;;;;;;2.65;1.15;;;22.20;66.40;;;;;;4118773;28;20445;-62
2022/10/18 07:58:39;;;;;;;3.42;1.30;;;22.20;66.80;;;;;;4115037;28;20046;-60
2022/10/18 08:01:06;;;;;;;9.13;1.70;;;22.20;67.00;;;;;;4114932;28;20402;-60
2022/10/18 08:03:28;;;;;;;4.10;1.10;;;22.20;67.20;;;;;;4119063;28;20450;-61
2022/10/18 08:05:53;;;;;;;2.22;1.17;;;22.20;67.20;;;;;;4123525;28;20556;-62
2022/10/18 08:08:15;;;;;;;1.63;1.10;;;22.20;67.10;;;;;;4118760;28;20117;-65
2022/10/18 08:10:38;;;;;;;6.28;1.17;;;22.20;67.10;;;;;;4114393;28;20094;-62
2022/10/18 08:13:00;;;;;;;3.35;1.10;;;22.20;67.00;;;;;;4113737;28;20129;-62
2022/10/18 08:15:24;;;;;;;11.27;1.38;;;22.30;67.00;;;;;;4115977;28;20038;-63
2022/10/18 08:17:47;;;;;;;3.13;0.82;;;22.20;66.90;;;;;;4115042;28;20057;-62
2022/10/18 08:20:10;;;;;;;4.20;0.90;;;22.20;66.90;;;;;;4117174;28;20081;-62
2022/10/18 08:22:32;;;;;;;1.23;0.50;;;22.20;66.90;;;;;;4118144;28;20113;-64
2022/10/18 08:24:55;;;;;;;2.10;0.98;;;22.20;66.80;;;;;;4115061;28;20577;-66
2022/10/18 08:27:17;;;;;;;3.60;0.80;;;22.20;67.00;;;;;;4117032;28;20293;-66
2022/10/18 08:29:40;;;;;;;0.88;0.60;;;22.20;67.00;;;;;;4115147;28;20034;-64
2022/10/18 08:32:02;;;;;;;4.43;0.80;;;22.20;67.00;;;;;;4114043;28;20048;-65
2022/10/18 08:34:25;;;;;;;0.50;0.40;;;22.20;67.00;;;;;;4110360;28;20043;-63
2022/10/18 08:36:48;;;;;;;2.72;0.63;;;22.20;67.00;;;;;;4115849;28;20132;-64
2022/10/18 08:39:10;;;;;;;1.52;0.60;;;22.30;67.00;;;;;;4126659;28;20048;-68
2022/10/18 08:42:00;;;;;;;0.98;0.82;;;22.20;66.80;;;;;;4117781;28;20041;-67
2022/10/18 08:44:26;;;;;;;1.75;0.98;;;22.20;66.50;;;;;;4116359;28;20100;-66
2022/10/18 08:46:51;;;;;;;4.03;1.40;;;22.20;65.90;;;;;;4120555;28;20042;-64
2022/10/18 08:49:41;;;;;;;4.90;1.65;;;22.20;65.70;;;;;;4118925;28;20049;-73
2022/10/18 08:52:06;;;;;;;2.92;1.40;;;22.10;65.70;;;;;;4123905;28;20508;-67
2022/10/18 08:54:38;;;;;;;2.42;1.25;;;22.10;65.70;;;;;;4111321;28;20042;-63
2022/10/18 08:57:06;;;;;;;2.55;1.38;;;22.10;65.70;;;;;;4118406;28;20125;-69
2022/10/18 08:59:40;;;;;;;3.70;1.42;;;22.00;65.80;;;;;;4120980;28;20563;-67
2022/10/18 09:02:26;;;;;;;3.03;1.00;;;22.00;66.00;;;;;;4119287;28;20069;-68
2022/10/18 09:05:11;;;;;;;4.15;1.30;;;22.00;66.10;;;;;;4111572;28;20075;-63
2022/10/18 09:07:43;;;;;;;3.72;1.50;;;22.00;66.40;;;;;;4113000;28;20508;-60
2022/10/18 09:10:27;;;;;;;5.00;1.23;;;22.00;66.80;;;;;;4109553;28;20128;-66
2022/10/18 09:13:12;;;;;;;6.03;1.48;;;22.00;67.00;;;;;;4109481;28;20045;-63
2022/10/18 09:15:44;;;;;;;13.52;1.60;;;22.00;67.00;;;;;;4112737;28;20037;-65
2022/10/18 09:18:16;;;;;;;4.82;1.42;;;22.00;67.10;;;;;;4107607;28;20537;-63
2022/10/18 09:20:58;;;;;;;5.68;0.90;;;22.00;67.00;;;;;;4111505;28;20045;-65
2022/10/18 09:23:28;;;;;;;5.15;1.60;;;22.10;67.10;;;;;;4120345;28;20030;-64
2022/10/18 09:29:27;;;;;;;7.63;1.10;;;22.10;67.20;;;;;;4124916;28;20047;-63
2022/10/18 09:32:05;;;;;;;3.13;0.70;;;22.10;67.20;;;;;;4112986;28;20031;-63
2022/10/18 09:34:42;;;;;;;3.40;0.60;;;22.10;67.10;;;;;;4109234;28;20112;-62
2022/10/18 09:37:10;;;;;;;1.75;0.65;;;22.10;67.20;;;;;;4104082;28;20031;-63
2022/10/18 09:39:37;;;;;;;1.98;0.60;;;22.10;67.20;;;;;;4102809;28;20513;-61
2022/10/18 09:42:27;;;;;;;2.47;0.70;;;22.10;67.30;;;;;;4102432;28;20050;-63
2022/10/18 09:45:02;;;;;;;1.45;0.80;;;22.20;67.40;;;;;;4101504;28;20502;-62
2022/10/18 09:47:37;;;;;;;3.42;0.60;;;22.10;67.40;;;;;;4098122;28;20134;-73
2022/10/18 09:50:24;;;;;;;2.78;0.73;;;22.20;67.50;;;;;;4106575;28;20038;-53
2022/10/18 09:52:57;;;;;;;6.50;1.00;;;22.10;67.20;;;;;;4107492;28;20050;-58
2022/10/18 09:55:25;;;;;;;4.25;1.45;;;22.10;67.00;;;;;;4104162;28;20065;-54
2022/10/18 09:57:56;;;;;;;11.60;1.80;;;22.20;67.20;;;;;;4099537;28;20082;-56
2022/10/18 10:00:30;;;;;;;9.10;1.08;;;22.10;67.30;;;;;;4100097;28;20038;-54
2022/10/18 10:02:53;;;;;;;2.28;0.70;;;22.10;67.30;;;;;;4101950;28;20060;-58
2022/10/18 10:05:16;;;;;;;2.97;0.90;;;22.10;67.30;;;;;;4100513;28;20371;-58
2022/10/18 10:07:46;;;;;;;6.13;0.88;;;22.10;67.40;;;;;;4103255;28;20157;-61
2022/10/18 10:10:17;;;;;;;7.32;0.90;;;22.10;67.40;;;;;;4102414;28;20053;-61
2022/10/18 10:12:40;;;;;;;2.15;0.70;;;22.20;67.50;;;;;;4101697;28;20617;-57
2022/10/18 10:15:21;;;;;;;2.65;0.63;;;22.20;67.40;;;;;;4099308;28;20097;-59
2022/10/18 10:17:44;;;;;;;1.17;0.70;;;22.20;67.40;;;;;;4100569;28;20049;-59
2022/10/18 10:20:23;;;;;;;1.80;0.60;;;22.20;67.40;;;;;;4101403;28;20129;-60
2022/10/18 10:22:47;;;;;;;2.92;1.00;;;22.20;67.40;;;;;;4098904;28;20088;-60
2022/10/18 10:25:28;;;;;;;1.30;0.70;;;22.20;67.40;;;;;;4102965;28;20035;-60
2022/10/18 10:27:50;;;;;;;1.38;0.70;;;22.20;67.30;;;;;;4099181;28;20058;-58
2022/10/18 10:30:31;;;;;;;0.73;0.55;;;22.20;67.30;;;;;;4100761;28;20433;-58
2022/10/18 10:32:55;;;;;;;0.85;0.63;;;22.20;67.30;;;;;;4101411;28;20504;-60
2022/10/18 10:35:29;;;;;;;2.25;0.60;;;22.20;67.30;;;;;;4099325;28;20126;-59
2022/10/18 10:37:54;;;;;;;1.83;1.00;;;22.30;67.40;;;;;;4101878;28;20038;-57
2022/10/18 10:40:21;;;;;;;2.90;1.15;;;22.20;66.80;;;;;;4105766;28;20402;-59
2022/10/18 10:43:02;;;;;;;3.13;1.45;;;22.20;66.60;;;;;;4107575;28;20093;-61
2022/10/18 10:45:27;;;;;;;3.35;1.60;;;22.20;66.70;;;;;;4109432;28;20042;-63
2022/10/18 10:47:53;;;;;;;2.72;1.50;;;22.10;66.70;;;;;;4104337;28;20069;-61
2022/10/18 10:50:26;;;;;;;2.15;1.30;;;22.10;66.80;;;;;;4106017;28;20057;-62
2022/10/18 10:52:49;;;;;;;2.63;1.55;;;22.00;66.80;;;;;;4111947;28;20065;-59
2022/10/18 10:55:22;;;;;;;2.17;1.27;;;22.00;66.90;;;;;;4107355;28;20839;-50
2022/10/18 10:57:49;;;;;;;3.70;1.30;;;22.00;67.00;;;;;;4106498;28;20077;-56
2022/10/18 11:00:32;;;;;;;2.53;1.10;;;22.00;67.10;;;;;;4108014;28;20059;-59
2022/10/18 11:03:06;;;;;;;2.58;1.63;;;22.00;67.10;;;;;;4096562;28;20453;-59
2022/10/18 11:05:29;;;;;;;6.70;1.60;;;21.90;67.20;;;;;;4105452;28;20057;-60
2022/10/18 11:07:57;;;;;;;3.63;1.33;;;21.90;67.40;;;;;;4102543;28;20493;-60
2022/10/18 11:10:24;;;;;;;2.47;1.30;;;21.90;67.50;;;;;;4100734;28;20155;-59
2022/10/18 11:13:06;;;;;;;2.05;1.08;;;21.90;67.60;;;;;;4101288;28;20520;-60
2022/10/18 11:15:54;;;;;;;2.45;1.10;;;21.90;67.70;;;;;;4101259;28;20037;-61
2022/10/18 11:18:29;;;;;;;2.53;0.70;;;21.90;67.80;;;;;;4101219;28;20077;-62
2022/10/18 11:21:06;;;;;;;2.38;1.10;;;21.90;67.90;;;;;;4101691;28;20042;-62
2022/10/18 11:23:32;;;;;;;1.27;0.90;;;21.90;67.90;;;;;;4105109;28;20042;-61
2022/10/18 11:26:02;;;;;;;0.90;0.80;;;21.90;68.00;;;;;;4104871;28;20552;-59
2022/10/18 11:28:32;;;;;;;1.70;0.57;;;21.90;68.10;;;;;;4103684;28;20063;-59
2022/10/18 11:30:58;;;;;;;1.45;0.70;;;21.90;68.10;;;;;;4106646;28;20037;-63
2022/10/18 11:33:48;;;;;;;3.70;0.75;;;21.90;68.30;;;;;;4102735;28;20409;-59
2022/10/18 11:36:15;;;;;;;2.15;0.73;;;21.90;68.20;;;;;;4106824;28;20086;-59
2022/10/18 11:38:56;;;;;;;4.50;0.65;;;21.90;68.30;;;;;;4103802;28;20042;-59
2022/10/18 11:41:21;;;;;;;5.25;0.80;;;21.90;68.20;;;;;;4102728;28;20034;-61
2022/10/18 11:43:46;;;;;;;1.92;0.73;;;21.90;68.30;;;;;;4106396;28;20100;-59
2022/10/18 11:46:24;;;;;;;1.98;1.02;;;21.90;68.20;;;;;;4109685;28;20034;-60
2022/10/18 11:49:02;;;;;;;4.05;1.77;;;21.90;67.70;;;;;;4110479;28;20063;-60
2022/10/18 11:51:30;;;;;;;3.90;1.92;;;21.90;67.50;;;;;;4113216;28;20042;-59
2022/10/18 11:54:15;;;;;;;2.80;1.55;;;21.90;67.50;;;;;;4108946;28;20476;-61
2022/10/18 11:56:37;;;;;;;;;;;21.90;67.60;;;;;;4105206;28;20142;-63
2022/10/18 11:59:38;;;;;;;3.60;1.38;;;21.90;67.70;;;;;;4102941;28;19914;-62
2022/10/18 12:02:25;;;;;;;2.40;1.20;;;21.80;67.90;;;;;;4104618;28;20125;-62
2022/10/18 12:04:54;;;;;;;1.55;1.10;;;21.80;67.90;;;;;;4104451;28;20109;-62
2022/10/18 12:07:19;;;;;;;2.65;1.00;;;21.80;68.10;;;;;;4103436;28;20512;-63
2022/10/18 12:09:44;;;;;;;2.72;1.00;;;21.80;68.20;;;;;;4098610;28;20061;-60
2022/10/18 12:12:38;;;;;;;1.27;0.80;;;21.80;68.30;;;;;;4103660;28;20501;-61
2022/10/18 12:15:14;;;;;;;2.65;1.05;;;21.80;68.30;;;;;;4106883;28;20039;-62
2022/10/18 12:17:48;;;;;;;6.45;0.80;;;21.80;68.40;;;;;;4106085;28;20289;-59
2022/10/18 12:20:39;;;;;;;1.50;0.80;;;21.80;68.50;;;;;;4104758;28;20390;-61
2022/10/18 12:23:31;;;;;;;1.33;0.80;;;21.80;68.70;;;;;;4102978;28;20251;-61
2022/10/18 12:26:03;;;;;;;1.55;0.57;;;21.80;68.80;;;;;;4101780;28;20500;-60
2022/10/18 12:28:25;;;;;;;2.10;0.80;;;21.80;68.70;;;;;;4101447;28;20081;-64
2022/10/18 12:30:51;;;;;;;2.45;0.90;;;21.80;68.70;;;;;;4103192;28;20042;-61
2022/10/18 12:33:30;;;;;;;2.50;1.25;;;21.80;68.70;;;;;;4103909;28;20125;-63
2022/10/18 12:35:58;;;;;;;1.77;1.13;;;21.80;68.80;;;;;;4104499;28;20476;-62
2022/10/18 12:38:29;;;;;;;6.75;1.17;;;21.80;68.80;;;;;;4102663;28;20043;-63
2022/10/18 12:40:53;;;;;;;1.95;0.80;;;21.80;68.80;;;;;;4104493;28;20034;-62
2022/10/18 12:43:35;;;;;;;1.48;1.10;;;21.80;68.80;;;;;;4103553;28;20902;-61
2022/10/18 12:46:01;;;;;;;1.05;0.75;;;21.80;68.80;;;;;;4104776;28;20034;-60
2022/10/18 12:48:37;;;;;;;2.00;0.93;;;21.80;68.80;;;;;;4101385;28;20062;-64
2022/10/18 12:51:05;;;;;;;2.70;1.00;;;21.80;68.90;;;;;;4106769;28;20026;-63